sensor_id;sensor_type;location;lat;lon;timestamp;P1;durP1;ratioP1;P2;durP2;ratioP2
351;SDS011;164;50.784;6.496;2022-10-20T00:02:18;15.55;;;14.15;;
351;SDS011;164;50.784;6.496;2022-10-20T00:04:45;15.93;;;15.13;;
351;SDS011;164;50.784;6.496;2022-10-20T00:07:12;15.32;;;14.55;;
351;SDS011;164;50.784;6.496;2022-10-20T00:09:39;15.98;;;15.20;;
351;SDS011;164;50.784;6.496;2022-10-20T00:12:06;17.88;;;15.07;;
351;SDS011;164;50.784;6.496;2022-10-20T00:14:33;16.98;;;13.45;;
351;SDS011;164;50.784;6.496;2022-10-20T00:17:00;14.23;;;12.93;;
351;SDS011;164;50.784;6.496;2022-10-20T00:19:28;15.13;;;14.32;;
351;SDS011;164;50.784;6.496;2022-10-20T00:21:56;14.77;;;14.00;;
351;SDS011;164;50.784;6.496;2022-10-20T00:24:23;16.85;;;15.32;;
351;SDS011;164;50.784;6.496;2022-10-20T00:26:50;18.17;;;14.52;;
351;SDS011;164;50.784;6.496;2022-10-20T00:29:17;18.08;;;15.10;;
351;SDS011;164;50.784;6.496;2022-10-20T00:31:44;15.30;;;14.35;;
351;SDS011;164;50.784;6.496;2022-10-20T00:34:10;18.70;;;13.73;;
351;SDS011;164;50.784;6.496;2022-10-20T00:36:39;22.10;;;15.00;;
351;SDS011;164;50.784;6.496;2022-10-20T00:39:06;15.50;;;14.70;;
351;SDS011;164;50.784;6.496;2022-10-20T00:41:33;15.35;;;14.55;;
351;SDS011;164;50.784;6.496;2022-10-20T00:44:00;15.25;;;14.20;;
351;SDS011;164;50.784;6.496;2022-10-20T00:46:48;14.40;;;13.70;;
351;SDS011;164;50.784;6.496;2022-10-20T00:49:17;17.17;;;16.27;;
351;SDS011;164;50.784;6.496;2022-10-20T00:51:48;16.17;;;15.38;;
351;SDS011;164;50.784;6.496;2022-10-20T00:54:17;13.15;;;12.45;;
351;SDS011;164;50.784;6.496;2022-10-20T00:56:47;15.18;;;14.38;;
351;SDS011;164;50.784;6.496;2022-10-20T00:59:16;12.85;;;12.20;;
351;SDS011;164;50.784;6.496;2022-10-20T01:01:47;15.27;;;14.48;;
351;SDS011;164;50.784;6.496;2022-10-20T01:04:14;16.30;;;14.95;;
351;SDS011;164;50.784;6.496;2022-10-20T01:06:42;16.48;;;15.68;;
351;SDS011;164;50.784;6.496;2022-10-20T01:09:11;16.15;;;15.20;;
351;SDS011;164;50.784;6.496;2022-10-20T01:11:40;18.88;;;15.45;;
351;SDS011;164;50.784;6.496;2022-10-20T01:14:18;15.45;;;14.65;;
351;SDS011;164;50.784;6.496;2022-10-20T01:22:15;16.92;;;14.98;;
351;SDS011;164;50.784;6.496;2022-10-20T01:25:15;17.42;;;15.45;;
351;SDS011;164;50.784;6.496;2022-10-20T01:27:47;17.45;;;15.32;;
351;SDS011;164;50.784;6.496;2022-10-20T01:30:18;17.30;;;16.40;;
351;SDS011;164;50.784;6.496;2022-10-20T01:32:54;16.75;;;15.93;;
351;SDS011;164;50.784;6.496;2022-10-20T01:35:39;16.10;;;15.02;;
351;SDS011;164;50.784;6.496;2022-10-20T01:38:13;15.23;;;14.43;;
351;SDS011;164;50.784;6.496;2022-10-20T01:40:47;17.23;;;15.55;;
351;SDS011;164;50.784;6.496;2022-10-20T01:43:19;18.45;;;14.85;;
351;SDS011;164;50.784;6.496;2022-10-20T01:45:49;15.15;;;14.35;;
351;SDS011;164;50.784;6.496;2022-10-20T01:48:20;17.67;;;16.77;;
351;SDS011;164;50.784;6.496;2022-10-20T01:50:50;13.50;;;12.18;;
351;SDS011;164;50.784;6.496;2022-10-20T01:53:18;15.15;;;14.35;;
351;SDS011;164;50.784;6.496;2022-10-20T01:55:48;16.05;;;15.25;;
351;SDS011;164;50.784;6.496;2022-10-20T01:58:28;18.30;;;16.42;;
351;SDS011;164;50.784;6.496;2022-10-20T02:01:15;16.23;;;15.43;;
351;SDS011;164;50.784;6.496;2022-10-20T02:03:48;15.48;;;14.68;;
351;SDS011;164;50.784;6.496;2022-10-20T02:06:22;17.50;;;15.40;;
351;SDS011;164;50.784;6.496;2022-10-20T02:08:58;16.58;;;15.10;;
351;SDS011;164;50.784;6.496;2022-10-20T02:11:29;15.25;;;14.27;;
351;SDS011;164;50.784;6.496;2022-10-20T02:14:04;16.33;;;15.52;;
351;SDS011;164;50.784;6.496;2022-10-20T02:16:35;17.25;;;15.00;;
351;SDS011;164;50.784;6.496;2022-10-20T02:19:05;15.82;;;15.02;;
351;SDS011;164;50.784;6.496;2022-10-20T02:21:34;14.52;;;13.82;;
351;SDS011;164;50.784;6.496;2022-10-20T02:24:02;16.05;;;15.27;;
351;SDS011;164;50.784;6.496;2022-10-20T02:26:31;17.27;;;15.57;;
351;SDS011;164;50.784;6.496;2022-10-20T02:29:02;15.05;;;13.63;;
351;SDS011;164;50.784;6.496;2022-10-20T02:31:35;22.02;;;15.27;;
351;SDS011;164;50.784;6.496;2022-10-20T02:34:02;15.18;;;14.40;;
351;SDS011;164;50.784;6.496;2022-10-20T02:36:29;16.65;;;14.90;;
351;SDS011;164;50.784;6.496;2022-10-20T02:38:56;15.52;;;14.73;;
351;SDS011;164;50.784;6.496;2022-10-20T02:41:23;15.80;;;13.95;;
351;SDS011;164;50.784;6.496;2022-10-20T02:43:51;17.73;;;15.45;;
351;SDS011;164;50.784;6.496;2022-10-20T02:46:19;16.60;;;15.30;;
351;SDS011;164;50.784;6.496;2022-10-20T02:48:46;18.83;;;15.60;;
351;SDS011;164;50.784;6.496;2022-10-20T02:51:12;15.50;;;14.68;;
351;SDS011;164;50.784;6.496;2022-10-20T02:53:41;16.10;;;15.30;;
351;SDS011;164;50.784;6.496;2022-10-20T02:56:08;16.08;;;14.70;;
351;SDS011;164;50.784;6.496;2022-10-20T02:58:35;16.60;;;15.80;;
351;SDS011;164;50.784;6.496;2022-10-20T03:01:02;14.38;;;13.68;;
351;SDS011;164;50.784;6.496;2022-10-20T03:03:31;14.40;;;13.65;;
351;SDS011;164;50.784;6.496;2022-10-20T03:06:03;14.93;;;14.13;;
351;SDS011;164;50.784;6.496;2022-10-20T03:08:32;15.25;;;14.45;;
351;SDS011;164;50.784;6.496;2022-10-20T03:14:21;14.95;;;14.20;;
351;SDS011;164;50.784;6.496;2022-10-20T03:16:48;16.42;;;15.55;;
351;SDS011;164;50.784;6.496;2022-10-20T03:19:16;16.30;;;12.93;;
351;SDS011;164;50.784;6.496;2022-10-20T03:21:43;14.48;;;13.77;;
351;SDS011;164;50.784;6.496;2022-10-20T03:24:10;15.02;;;13.10;;
351;SDS011;164;50.784;6.496;2022-10-20T03:26:37;14.85;;;13.85;;
351;SDS011;164;50.784;6.496;2022-10-20T03:29:04;14.77;;;13.57;;
351;SDS011;164;50.784;6.496;2022-10-20T03:31:31;16.10;;;14.48;;
351;SDS011;164;50.784;6.496;2022-10-20T03:33:58;15.63;;;14.40;;
351;SDS011;164;50.784;6.496;2022-10-20T03:36:27;19.05;;;13.80;;
351;SDS011;164;50.784;6.496;2022-10-20T03:38:54;17.17;;;13.20;;
351;SDS011;164;50.784;6.496;2022-10-20T03:41:21;14.88;;;14.15;;
351;SDS011;164;50.784;6.496;2022-10-20T03:43:48;14.20;;;13.50;;
351;SDS011;164;50.784;6.496;2022-10-20T03:46:14;15.43;;;14.63;;
351;SDS011;164;50.784;6.496;2022-10-20T03:48:42;15.77;;;13.80;;
351;SDS011;164;50.784;6.496;2022-10-20T03:51:09;14.52;;;13.82;;
351;SDS011;164;50.784;6.496;2022-10-20T03:53:40;14.20;;;13.50;;
351;SDS011;164;50.784;6.496;2022-10-20T03:56:07;18.80;;;15.07;;
351;SDS011;164;50.784;6.496;2022-10-20T03:58:35;15.25;;;13.95;;
351;SDS011;164;50.784;6.496;2022-10-20T04:01:02;14.15;;;13.45;;
351;SDS011;164;50.784;6.496;2022-10-20T04:03:30;14.10;;;13.40;;
351;SDS011;164;50.784;6.496;2022-10-20T04:05:57;13.35;;;12.65;;
351;SDS011;164;50.784;6.496;2022-10-20T04:08:24;14.38;;;13.68;;
351;SDS011;164;50.784;6.496;2022-10-20T04:10:52;16.08;;;14.45;;
351;SDS011;164;50.784;6.496;2022-10-20T04:13:19;17.27;;;14.20;;
351;SDS011;164;50.784;6.496;2022-10-20T04:15:46;18.92;;;15.48;;
351;SDS011;164;50.784;6.496;2022-10-20T04:18:13;16.20;;;15.40;;
351;SDS011;164;50.784;6.496;2022-10-20T04:20:40;16.23;;;13.55;;
351;SDS011;164;50.784;6.496;2022-10-20T04:23:07;15.35;;;14.55;;
351;SDS011;164;50.784;6.496;2022-10-20T04:25:34;16.17;;;15.38;;
351;SDS011;164;50.784;6.496;2022-10-20T04:28:05;14.73;;;13.98;;
351;SDS011;164;50.784;6.496;2022-10-20T04:30:32;17.42;;;13.38;;
351;SDS011;164;50.784;6.496;2022-10-20T04:33:00;27.83;;;26.45;;
351;SDS011;164;50.784;6.496;2022-10-20T04:35:26;15.10;;;14.30;;
351;SDS011;164;50.784;6.496;2022-10-20T04:37:53;15.02;;;13.85;;
351;SDS011;164;50.784;6.496;2022-10-20T04:40:20;15.15;;;14.35;;
351;SDS011;164;50.784;6.496;2022-10-20T04:42:47;15.02;;;14.23;;
351;SDS011;164;50.784;6.496;2022-10-20T04:45:15;15.63;;;14.55;;
351;SDS011;164;50.784;6.496;2022-10-20T04:47:42;16.67;;;13.25;;
351;SDS011;164;50.784;6.496;2022-10-20T04:50:09;13.93;;;13.27;;
351;SDS011;164;50.784;6.496;2022-10-20T04:52:36;15.65;;;14.85;;
351;SDS011;164;50.784;6.496;2022-10-20T04:55:03;15.35;;;14.52;;
351;SDS011;164;50.784;6.496;2022-10-20T04:57:31;16.98;;;15.10;;
351;SDS011;164;50.784;6.496;2022-10-20T04:59:59;14.07;;;13.20;;
351;SDS011;164;50.784;6.496;2022-10-20T05:02:27;15.80;;;15.00;;
351;SDS011;164;50.784;6.496;2022-10-20T05:04:55;14.85;;;14.07;;
351;SDS011;164;50.784;6.496;2022-10-20T05:07:22;13.90;;;13.20;;
351;SDS011;164;50.784;6.496;2022-10-20T05:09:49;18.20;;;14.25;;
351;SDS011;164;50.784;6.496;2022-10-20T05:12:16;14.45;;;13.75;;
351;SDS011;164;50.784;6.496;2022-10-20T05:14:43;13.68;;;12.98;;
351;SDS011;164;50.784;6.496;2022-10-20T05:17:09;13.98;;;13.27;;
351;SDS011;164;50.784;6.496;2022-10-20T05:19:38;13.32;;;12.63;;
351;SDS011;164;50.784;6.496;2022-10-20T05:22:05;15.02;;;14.00;;
351;SDS011;164;50.784;6.496;2022-10-20T05:24:32;15.27;;;14.48;;
351;SDS011;164;50.784;6.496;2022-10-20T05:26:59;15.73;;;14.52;;
351;SDS011;164;50.784;6.496;2022-10-20T05:29:25;15.00;;;14.20;;
351;SDS011;164;50.784;6.496;2022-10-20T05:31:52;13.50;;;12.80;;
351;SDS011;164;50.784;6.496;2022-10-20T05:34:19;14.82;;;13.75;;
351;SDS011;164;50.784;6.496;2022-10-20T05:36:47;16.60;;;14.40;;
351;SDS011;164;50.784;6.496;2022-10-20T05:39:14;15.40;;;14.43;;
351;SDS011;164;50.784;6.496;2022-10-20T05:41:41;16.70;;;15.23;;
351;SDS011;164;50.784;6.496;2022-10-20T05:44:10;17.08;;;16.17;;
351;SDS011;164;50.784;6.496;2022-10-20T05:46:38;17.38;;;15.10;;
351;SDS011;164;50.784;6.496;2022-10-20T05:49:05;16.13;;;13.88;;
351;SDS011;164;50.784;6.496;2022-10-20T05:51:36;17.00;;;16.10;;
351;SDS011;164;50.784;6.496;2022-10-20T05:54:04;16.63;;;14.80;;
351;SDS011;164;50.784;6.496;2022-10-20T05:56:31;14.68;;;13.35;;
351;SDS011;164;50.784;6.496;2022-10-20T05:58:58;15.38;;;14.57;;
351;SDS011;164;50.784;6.496;2022-10-20T06:01:26;15.20;;;14.32;;
351;SDS011;164;50.784;6.496;2022-10-20T06:04:03;15.05;;;14.25;;
351;SDS011;164;50.784;6.496;2022-10-20T06:06:32;16.38;;;14.82;;
351;SDS011;164;50.784;6.496;2022-10-20T06:09:00;15.43;;;14.63;;
351;SDS011;164;50.784;6.496;2022-10-20T06:11:32;17.38;;;16.08;;
351;SDS011;164;50.784;6.496;2022-10-20T06:13:59;17.02;;;15.00;;
351;SDS011;164;50.784;6.496;2022-10-20T06:16:26;15.95;;;15.15;;
351;SDS011;164;50.784;6.496;2022-10-20T06:18:53;16.30;;;15.50;;
351;SDS011;164;50.784;6.496;2022-10-20T06:21:23;16.98;;;16.10;;
351;SDS011;164;50.784;6.496;2022-10-20T06:23:51;17.00;;;16.10;;
351;SDS011;164;50.784;6.496;2022-10-20T06:26:21;21.67;;;16.88;;
351;SDS011;164;50.784;6.496;2022-10-20T06:28:51;18.58;;;15.25;;
351;SDS011;164;50.784;6.496;2022-10-20T06:31:19;15.38;;;14.57;;
351;SDS011;164;50.784;6.496;2022-10-20T06:33:48;17.95;;;17.05;;
351;SDS011;164;50.784;6.496;2022-10-20T06:36:16;16.02;;;15.23;;
351;SDS011;164;50.784;6.496;2022-10-20T06:38:44;18.30;;;14.85;;
351;SDS011;164;50.784;6.496;2022-10-20T06:41:12;16.40;;;15.60;;
351;SDS011;164;50.784;6.496;2022-10-20T06:43:42;15.40;;;14.60;;
351;SDS011;164;50.784;6.496;2022-10-20T06:46:10;17.35;;;15.75;;
351;SDS011;164;50.784;6.496;2022-10-20T06:48:38;15.20;;;14.40;;
351;SDS011;164;50.784;6.496;2022-10-20T06:51:09;18.88;;;15.32;;
351;SDS011;164;50.784;6.496;2022-10-20T06:53:37;17.13;;;16.23;;
351;SDS011;164;50.784;6.496;2022-10-20T06:56:05;17.10;;;15.98;;
351;SDS011;164;50.784;6.496;2022-10-20T06:58:34;17.05;;;16.15;;
351;SDS011;164;50.784;6.496;2022-10-20T07:01:04;15.68;;;14.88;;
351;SDS011;164;50.784;6.496;2022-10-20T07:03:32;16.25;;;15.45;;
351;SDS011;164;50.784;6.496;2022-10-20T07:06:01;15.13;;;14.32;;
351;SDS011;164;50.784;6.496;2022-10-20T07:08:29;16.88;;;16.00;;
351;SDS011;164;50.784;6.496;2022-10-20T07:10:58;18.05;;;17.15;;
351;SDS011;164;50.784;6.496;2022-10-20T07:13:26;15.52;;;14.18;;
351;SDS011;164;50.784;6.496;2022-10-20T07:15:53;15.43;;;14.63;;
351;SDS011;164;50.784;6.496;2022-10-20T07:18:22;14.77;;;14.00;;
351;SDS011;164;50.784;6.496;2022-10-20T07:20:50;15.60;;;14.32;;
351;SDS011;164;50.784;6.496;2022-10-20T07:23:17;14.90;;;13.70;;
351;SDS011;164;50.784;6.496;2022-10-20T07:25:44;19.52;;;14.30;;
351;SDS011;164;50.784;6.496;2022-10-20T07:28:11;12.98;;;12.27;;
351;SDS011;164;50.784;6.496;2022-10-20T07:30:38;24.52;;;14.23;;
351;SDS011;164;50.784;6.496;2022-10-20T07:33:06;14.90;;;12.77;;
351;SDS011;164;50.784;6.496;2022-10-20T07:35:35;14.07;;;13.38;;
351;SDS011;164;50.784;6.496;2022-10-20T07:38:02;14.18;;;13.20;;
351;SDS011;164;50.784;6.496;2022-10-20T07:40:29;17.88;;;12.88;;
351;SDS011;164;50.784;6.496;2022-10-20T07:42:57;11.93;;;11.32;;
351;SDS011;164;50.784;6.496;2022-10-20T07:45:24;13.25;;;12.55;;
351;SDS011;164;50.784;6.496;2022-10-20T07:47:51;13.18;;;12.48;;
351;SDS011;164;50.784;6.496;2022-10-20T07:50:17;16.92;;;16.05;;
351;SDS011;164;50.784;6.496;2022-10-20T07:52:50;12.85;;;12.15;;
351;SDS011;164;50.784;6.496;2022-10-20T07:55:17;11.35;;;10.75;;
351;SDS011;164;50.784;6.496;2022-10-20T07:57:45;12.35;;;11.75;;
351;SDS011;164;50.784;6.496;2022-10-20T08:00:12;11.77;;;11.18;;
351;SDS011;164;50.784;6.496;2022-10-20T08:02:40;13.70;;;12.15;;
351;SDS011;164;50.784;6.496;2022-10-20T08:05:07;11.40;;;10.80;;
351;SDS011;164;50.784;6.496;2022-10-20T08:07:34;11.95;;;10.48;;
351;SDS011;164;50.784;6.496;2022-10-20T08:10:03;10.45;;;9.95;;
351;SDS011;164;50.784;6.496;2022-10-20T08:12:30;12.40;;;11.80;;
351;SDS011;164;50.784;6.496;2022-10-20T08:14:57;12.93;;;12.18;;
351;SDS011;164;50.784;6.496;2022-10-20T08:17:24;12.73;;;12.02;;
351;SDS011;164;50.784;6.496;2022-10-20T08:19:51;11.57;;;10.98;;
351;SDS011;164;50.784;6.496;2022-10-20T08:22:18;12.38;;;10.43;;
351;SDS011;164;50.784;6.496;2022-10-20T08:24:45;12.00;;;11.40;;
351;SDS011;164;50.784;6.496;2022-10-20T08:27:14;10.98;;;10.38;;
351;SDS011;164;50.784;6.496;2022-10-20T08:29:41;11.15;;;10.18;;
351;SDS011;164;50.784;6.496;2022-10-20T08:32:08;11.32;;;10.73;;
351;SDS011;164;50.784;6.496;2022-10-20T08:34:36;13.75;;;11.02;;
351;SDS011;164;50.784;6.496;2022-10-20T08:37:03;11.75;;;11.15;;
351;SDS011;164;50.784;6.496;2022-10-20T08:39:31;12.45;;;11.85;;
351;SDS011;164;50.784;6.496;2022-10-20T08:41:58;12.68;;;10.25;;
351;SDS011;164;50.784;6.496;2022-10-20T08:44:29;12.00;;;11.40;;
351;SDS011;164;50.784;6.496;2022-10-20T08:46:59;10.80;;;10.20;;
351;SDS011;164;50.784;6.496;2022-10-20T08:49:29;12.40;;;11.80;;
351;SDS011;164;50.784;6.496;2022-10-20T08:51:57;12.23;;;10.70;;
351;SDS011;164;50.784;6.496;2022-10-20T08:54:25;10.80;;;10.05;;
351;SDS011;164;50.784;6.496;2022-10-20T08:56:52;11.80;;;11.20;;
351;SDS011;164;50.784;6.496;2022-10-20T08:59:22;10.93;;;10.32;;
351;SDS011;164;50.784;6.496;2022-10-20T09:01:54;10.93;;;10.25;;
351;SDS011;164;50.784;6.496;2022-10-20T09:04:23;10.65;;;10.05;;
351;SDS011;164;50.784;6.496;2022-10-20T09:06:54;11.48;;;10.88;;
351;SDS011;164;50.784;6.496;2022-10-20T09:09:24;10.75;;;10.15;;
351;SDS011;164;50.784;6.496;2022-10-20T09:12:06;12.75;;;10.80;;
351;SDS011;164;50.784;6.496;2022-10-20T09:14:37;10.35;;;9.85;;
351;SDS011;164;50.784;6.496;2022-10-20T09:17:10;13.52;;;11.68;;
351;SDS011;164;50.784;6.496;2022-10-20T09:19:41;11.77;;;11.18;;
351;SDS011;164;50.784;6.496;2022-10-20T09:22:12;11.98;;;11.38;;
351;SDS011;164;50.784;6.496;2022-10-20T09:24:41;12.90;;;12.10;;
351;SDS011;164;50.784;6.496;2022-10-20T09:27:19;13.00;;;12.30;;
351;SDS011;164;50.784;6.496;2022-10-20T09:29:49;14.00;;;12.18;;
351;SDS011;164;50.784;6.496;2022-10-20T09:32:19;14.23;;;10.60;;
351;SDS011;164;50.784;6.496;2022-10-20T09:35:03;12.98;;;12.27;;
351;SDS011;164;50.784;6.496;2022-10-20T09:37:43;12.68;;;12.00;;
351;SDS011;164;50.784;6.496;2022-10-20T09:40:15;11.80;;;11.20;;
351;SDS011;164;50.784;6.496;2022-10-20T09:42:45;11.77;;;11.18;;
351;SDS011;164;50.784;6.496;2022-10-20T09:45:17;13.60;;;11.95;;
351;SDS011;164;50.784;6.496;2022-10-20T09:47:49;13.73;;;12.88;;
351;SDS011;164;50.784;6.496;2022-10-20T09:50:19;12.93;;;12.23;;
351;SDS011;164;50.784;6.496;2022-10-20T09:52:51;13.20;;;12.50;;
351;SDS011;164;50.784;6.496;2022-10-20T09:55:24;14.70;;;13.95;;
351;SDS011;164;50.784;6.496;2022-10-20T09:57:53;13.93;;;13.10;;
351;SDS011;164;50.784;6.496;2022-10-20T10:00:22;16.58;;;14.30;;
351;SDS011;164;50.784;6.496;2022-10-20T10:03:09;15.25;;;14.15;;
351;SDS011;164;50.784;6.496;2022-10-20T10:05:45;14.95;;;14.15;;
351;SDS011;164;50.784;6.496;2022-10-20T10:08:16;14.05;;;13.35;;
351;SDS011;164;50.784;6.496;2022-10-20T10:10:44;13.70;;;13.00;;
351;SDS011;164;50.784;6.496;2022-10-20T10:13:22;14.05;;;13.35;;
351;SDS011;164;50.784;6.496;2022-10-20T10:15:57;13.48;;;12.77;;
351;SDS011;164;50.784;6.496;2022-10-20T10:18:31;13.70;;;12.65;;
351;SDS011;164;50.784;6.496;2022-10-20T10:21:01;14.00;;;13.30;;
351;SDS011;164;50.784;6.496;2022-10-20T10:23:31;16.83;;;13.52;;
351;SDS011;164;50.784;6.496;2022-10-20T10:26:01;14.90;;;14.10;;
351;SDS011;164;50.784;6.496;2022-10-20T10:28:30;14.88;;;14.10;;
351;SDS011;164;50.784;6.496;2022-10-20T10:31:06;16.98;;;13.77;;
351;SDS011;164;50.784;6.496;2022-10-20T10:33:48;14.75;;;13.98;;
351;SDS011;164;50.784;6.496;2022-10-20T10:36:29;14.88;;;14.13;;
351;SDS011;164;50.784;6.496;2022-10-20T10:38:58;14.70;;;13.95;;
351;SDS011;164;50.784;6.496;2022-10-20T10:41:39;13.75;;;13.05;;
351;SDS011;164;50.784;6.496;2022-10-20T10:44:20;14.45;;;13.75;;
351;SDS011;164;50.784;6.496;2022-10-20T10:46:58;20.40;;;13.57;;
351;SDS011;164;50.784;6.496;2022-10-20T10:49:42;14.57;;;13.82;;
351;SDS011;164;50.784;6.496;2022-10-20T10:52:22;17.67;;;13.90;;
351;SDS011;164;50.784;6.496;2022-10-20T10:55:05;13.20;;;12.50;;
351;SDS011;164;50.784;6.496;2022-10-20T10:57:43;13.70;;;12.18;;
351;SDS011;164;50.784;6.496;2022-10-20T11:00:21;13.30;;;12.60;;
351;SDS011;164;50.784;6.496;2022-10-20T11:02:59;15.80;;;15.00;;
351;SDS011;164;50.784;6.496;2022-10-20T11:08:32;16.33;;;14.65;;
351;SDS011;164;50.784;6.496;2022-10-20T11:11:11;15.55;;;14.75;;
351;SDS011;164;50.784;6.496;2022-10-20T11:13:50;15.50;;;14.70;;
351;SDS011;164;50.784;6.496;2022-10-20T11:16:23;15.90;;;15.10;;
351;SDS011;164;50.784;6.496;2022-10-20T11:19:02;15.20;;;14.40;;
351;SDS011;164;50.784;6.496;2022-10-20T11:22:00;15.35;;;14.50;;
351;SDS011;164;50.784;6.496;2022-10-20T11:24:43;14.93;;;14.13;;
351;SDS011;164;50.784;6.496;2022-10-20T11:27:18;15.95;;;14.98;;
351;SDS011;164;50.784;6.496;2022-10-20T11:29:50;15.85;;;15.05;;
351;SDS011;164;50.784;6.496;2022-10-20T11:32:23;17.30;;;16.08;;
351;SDS011;164;50.784;6.496;2022-10-20T11:34:59;20.98;;;16.60;;
351;SDS011;164;50.784;6.496;2022-10-20T11:37:31;21.50;;;17.33;;
351;SDS011;164;50.784;6.496;2022-10-20T11:40:05;17.33;;;16.38;;
351;SDS011;164;50.784;6.496;2022-10-20T11:42:42;16.05;;;15.25;;
351;SDS011;164;50.784;6.496;2022-10-20T11:45:21;18.67;;;15.70;;
351;SDS011;164;50.784;6.496;2022-10-20T11:47:55;17.50;;;15.85;;
351;SDS011;164;50.784;6.496;2022-10-20T11:50:26;18.00;;;17.10;;
351;SDS011;164;50.784;6.496;2022-10-20T11:52:59;16.90;;;16.02;;
351;SDS011;164;50.784;6.496;2022-10-20T11:55:48;17.92;;;17.02;;
351;SDS011;164;50.784;6.496;2022-10-20T11:58:28;16.90;;;16.00;;
351;SDS011;164;50.784;6.496;2022-10-20T12:01:21;19.60;;;16.50;;
351;SDS011;164;50.784;6.496;2022-10-20T12:04:02;20.33;;;17.63;;
351;SDS011;164;50.784;6.496;2022-10-20T12:07:10;17.77;;;16.88;;
351;SDS011;164;50.784;6.496;2022-10-20T12:09:53;18.63;;;17.73;;
351;SDS011;164;50.784;6.496;2022-10-20T12:12:43;17.02;;;16.13;;
351;SDS011;164;50.784;6.496;2022-10-20T12:15:19;18.10;;;16.08;;
351;SDS011;164;50.784;6.496;2022-10-20T12:17:47;18.20;;;17.23;;
351;SDS011;164;50.784;6.496;2022-10-20T12:29:46;16.75;;;15.63;;
351;SDS011;164;50.784;6.496;2022-10-20T12:38:25;15.95;;;15.15;;
351;SDS011;164;50.784;6.496;2022-10-20T12:40:56;15.50;;;14.70;;
351;SDS011;164;50.784;6.496;2022-10-20T12:43:29;16.65;;;15.45;;
351;SDS011;164;50.784;6.496;2022-10-20T12:46:07;16.35;;;15.55;;
351;SDS011;164;50.784;6.496;2022-10-20T12:48:40;15.77;;;14.98;;
351;SDS011;164;50.784;6.496;2022-10-20T12:51:20;17.33;;;14.73;;
351;SDS011;164;50.784;6.496;2022-10-20T12:53:55;14.65;;;13.93;;
351;SDS011;164;50.784;6.496;2022-10-20T12:56:26;14.98;;;14.15;;
351;SDS011;164;50.784;6.496;2022-10-20T13:05:23;14.60;;;13.85;;
351;SDS011;164;50.784;6.496;2022-10-20T13:10:47;17.77;;;14.73;;
351;SDS011;164;50.784;6.496;2022-10-20T13:16:23;17.73;;;14.80;;
351;SDS011;164;50.784;6.496;2022-10-20T13:18:53;15.52;;;14.73;;
351;SDS011;164;50.784;6.496;2022-10-20T13:21:32;21.83;;;16.42;;
351;SDS011;164;50.784;6.496;2022-10-20T13:24:10;28.67;;;26.00;;
351;SDS011;164;50.784;6.496;2022-10-20T13:26:47;16.77;;;15.93;;
351;SDS011;164;50.784;6.496;2022-10-20T13:29:23;16.33;;;13.85;;
351;SDS011;164;50.784;6.496;2022-10-20T13:32:03;15.50;;;13.73;;
351;SDS011;164;50.784;6.496;2022-10-20T13:34:38;14.40;;;13.70;;
351;SDS011;164;50.784;6.496;2022-10-20T13:37:15;14.02;;;13.32;;
351;SDS011;164;50.784;6.496;2022-10-20T13:40:06;14.45;;;13.73;;
351;SDS011;164;50.784;6.496;2022-10-20T13:42:45;13.38;;;12.18;;
351;SDS011;164;50.784;6.496;2022-10-20T13:45:25;14.57;;;13.85;;
351;SDS011;164;50.784;6.496;2022-10-20T13:48:03;14.90;;;14.10;;
351;SDS011;164;50.784;6.496;2022-10-20T13:50:38;14.93;;;12.80;;
351;SDS011;164;50.784;6.496;2022-10-20T13:53:12;12.73;;;12.02;;
351;SDS011;164;50.784;6.496;2022-10-20T13:55:53;14.18;;;13.48;;
351;SDS011;164;50.784;6.496;2022-10-20T13:58:24;13.43;;;11.68;;
351;SDS011;164;50.784;6.496;2022-10-20T14:00:55;12.27;;;11.68;;
351;SDS011;164;50.784;6.496;2022-10-20T14:03:25;13.00;;;12.30;;
351;SDS011;164;50.784;6.496;2022-10-20T14:05:54;13.20;;;11.30;;
351;SDS011;164;50.784;6.496;2022-10-20T14:08:24;12.48;;;11.88;;
351;SDS011;164;50.784;6.496;2022-10-20T14:10:52;11.90;;;11.30;;
351;SDS011;164;50.784;6.496;2022-10-20T14:13:22;13.27;;;12.57;;
351;SDS011;164;50.784;6.496;2022-10-20T14:15:51;14.00;;;11.85;;
351;SDS011;164;50.784;6.496;2022-10-20T14:18:21;11.52;;;10.93;;
351;SDS011;164;50.784;6.496;2022-10-20T14:20:54;12.93;;;11.75;;
351;SDS011;164;50.784;6.496;2022-10-20T14:23:25;12.20;;;11.60;;
351;SDS011;164;50.784;6.496;2022-10-20T14:25:56;12.98;;;12.27;;
351;SDS011;164;50.784;6.496;2022-10-20T14:28:23;13.27;;;12.57;;
351;SDS011;164;50.784;6.496;2022-10-20T14:30:53;12.15;;;11.55;;
351;SDS011;164;50.784;6.496;2022-10-20T14:33:21;11.80;;;11.20;;
351;SDS011;164;50.784;6.496;2022-10-20T14:35:49;13.13;;;11.65;;
351;SDS011;164;50.784;6.496;2022-10-20T14:38:19;11.05;;;10.45;;
351;SDS011;164;50.784;6.496;2022-10-20T14:40:52;11.57;;;10.02;;
351;SDS011;164;50.784;6.496;2022-10-20T14:43:20;10.77;;;10.18;;
351;SDS011;164;50.784;6.496;2022-10-20T14:45:52;11.32;;;10.73;;
351;SDS011;164;50.784;6.496;2022-10-20T14:48:21;13.10;;;10.27;;
351;SDS011;164;50.784;6.496;2022-10-20T14:50:49;18.17;;;10.80;;
351;SDS011;164;50.784;6.496;2022-10-20T14:53:26;11.15;;;10.55;;
351;SDS011;164;50.784;6.496;2022-10-20T14:55:57;9.48;;;7.97;;
351;SDS011;164;50.784;6.496;2022-10-20T14:58:27;8.88;;;8.35;;
351;SDS011;164;50.784;6.496;2022-10-20T15:03:46;8.23;;;6.13;;
351;SDS011;164;50.784;6.496;2022-10-20T15:06:32;8.27;;;5.88;;
351;SDS011;164;50.784;6.496;2022-10-20T15:08:59;6.38;;;5.95;;
351;SDS011;164;50.784;6.496;2022-10-20T15:11:28;5.60;;;5.30;;
351;SDS011;164;50.784;6.496;2022-10-20T15:13:56;6.30;;;5.75;;
351;SDS011;164;50.784;6.496;2022-10-20T15:16:38;6.43;;;5.70;;
351;SDS011;164;50.784;6.496;2022-10-20T15:19:24;5.97;;;5.68;;
351;SDS011;164;50.784;6.496;2022-10-20T15:21:59;6.82;;;6.15;;
351;SDS011;164;50.784;6.496;2022-10-20T15:24:33;5.32;;;5.03;;
351;SDS011;164;50.784;6.496;2022-10-20T15:27:01;5.80;;;5.50;;
351;SDS011;164;50.784;6.496;2022-10-20T15:29:28;4.63;;;4.05;;
351;SDS011;164;50.784;6.496;2022-10-20T15:31:56;10.02;;;5.40;;
351;SDS011;164;50.784;6.496;2022-10-20T15:34:23;7.50;;;5.70;;
351;SDS011;164;50.784;6.496;2022-10-20T15:36:51;5.88;;;5.50;;
351;SDS011;164;50.784;6.496;2022-10-20T15:39:18;5.53;;;5.22;;
351;SDS011;164;50.784;6.496;2022-10-20T15:41:45;4.97;;;4.68;;
351;SDS011;164;50.784;6.496;2022-10-20T15:44:14;6.38;;;5.22;;
351;SDS011;164;50.784;6.496;2022-10-20T15:46:43;5.68;;;5.38;;
351;SDS011;164;50.784;6.496;2022-10-20T15:49:10;8.98;;;5.72;;
351;SDS011;164;50.784;6.496;2022-10-20T15:51:38;6.05;;;5.10;;
351;SDS011;164;50.784;6.496;2022-10-20T15:54:06;9.30;;;6.18;;
351;SDS011;164;50.784;6.496;2022-10-20T15:56:36;6.85;;;5.07;;
351;SDS011;164;50.784;6.496;2022-10-20T15:59:03;6.85;;;5.93;;
351;SDS011;164;50.784;6.496;2022-10-20T16:01:31;11.23;;;5.63;;
351;SDS011;164;50.784;6.496;2022-10-20T16:03:58;7.63;;;5.40;;
351;SDS011;164;50.784;6.496;2022-10-20T16:06:27;7.43;;;7.00;;
351;SDS011;164;50.784;6.496;2022-10-20T16:08:54;10.02;;;9.55;;
351;SDS011;164;50.784;6.496;2022-10-20T16:11:21;9.60;;;9.10;;
351;SDS011;164;50.784;6.496;2022-10-20T16:13:48;6.75;;;5.72;;
351;SDS011;164;50.784;6.496;2022-10-20T16:16:16;6.22;;;5.68;;
351;SDS011;164;50.784;6.496;2022-10-20T16:18:46;7.88;;;5.82;;
351;SDS011;164;50.784;6.496;2022-10-20T16:21:12;6.45;;;5.53;;
351;SDS011;164;50.784;6.496;2022-10-20T16:23:40;8.00;;;7.60;;